sensor_id;sensor_type;location;lat;lon;timestamp;temperature;humidity
9984;DHT22;16737;50.932;6.780;2023-03-01T00:01:30;3.10;67.00
9984;DHT22;16737;50.932;6.780;2023-03-01T00:03:58;3.10;67.10
9984;DHT22;16737;50.932;6.780;2023-03-01T00:06:27;3.10;67.10
9984;DHT22;16737;50.932;6.780;2023-03-01T00:08:54;3.10;67.30
9984;DHT22;16737;50.932;6.780;2023-03-01T00:11:23;3.10;67.20
9984;DHT22;16737;50.932;6.780;2023-03-01T00:13:54;3.10;67.30
9984;DHT22;16737;50.932;6.780;2023-03-01T00:16:24;3.10;67.30
9984;DHT22;16737;50.932;6.780;2023-03-01T00:18:53;3.00;67.20
9984;DHT22;16737;50.932;6.780;2023-03-01T00:21:22;3.00;67.20
9984;DHT22;16737;50.932;6.780;2023-03-01T00:23:51;3.00;67.40
9984;DHT22;16737;50.932;6.780;2023-03-01T00:26:20;3.00;67.50
9984;DHT22;16737;50.932;6.780;2023-03-01T00:28:48;3.00;67.40
9984;DHT22;16737;50.932;6.780;2023-03-01T00:31:20;3.00;67.50
9984;DHT22;16737;50.932;6.780;2023-03-01T00:33:50;3.00;67.60
9984;DHT22;16737;50.932;6.780;2023-03-01T00:36:19;3.00;67.50
9984;DHT22;16737;50.932;6.780;2023-03-01T00:38:46;2.90;67.50
9984;DHT22;16737;50.932;6.780;2023-03-01T00:41:16;2.90;67.60
9984;DHT22;16737;50.932;6.780;2023-03-01T00:43:45;2.90;67.80
9984;DHT22;16737;50.932;6.780;2023-03-01T00:46:13;2.90;67.80
9984;DHT22;16737;50.932;6.780;2023-03-01T00:48:41;2.80;67.70
9984;DHT22;16737;50.932;6.780;2023-03-01T00:51:10;2.80;67.70
9984;DHT22;16737;50.932;6.780;2023-03-01T00:53:38;2.80;67.90
9984;DHT22;16737;50.932;6.780;2023-03-01T00:56:07;2.80;67.90
9984;DHT22;16737;50.932;6.780;2023-03-01T00:58:37;2.80;67.90
9984;DHT22;16737;50.932;6.780;2023-03-01T01:01:08;2.80;68.00
9984;DHT22;16737;50.932;6.780;2023-03-01T01:03:43;2.80;68.10
9984;DHT22;16737;50.932;6.780;2023-03-01T01:06:15;2.80;67.90
9984;DHT22;16737;50.932;6.780;2023-03-01T01:08:43;2.70;68.10
9984;DHT22;16737;50.932;6.780;2023-03-01T01:11:12;2.70;67.80
9984;DHT22;16737;50.932;6.780;2023-03-01T01:13:41;2.70;68.00
9984;DHT22;16737;50.932;6.780;2023-03-01T01:16:10;2.70;68.10
9984;DHT22;16737;50.932;6.780;2023-03-01T01:18:39;2.70;68.10
9984;DHT22;16737;50.932;6.780;2023-03-01T01:21:08;2.70;68.10
9984;DHT22;16737;50.932;6.780;2023-03-01T01:23:36;2.60;68.00
9984;DHT22;16737;50.932;6.780;2023-03-01T01:26:05;2.60;68.00
9984;DHT22;16737;50.932;6.780;2023-03-01T01:28:33;2.60;68.20
9984;DHT22;16737;50.932;6.780;2023-03-01T01:31:02;2.60;68.20
9984;DHT22;16737;50.932;6.780;2023-03-01T01:33:29;2.60;68.30
9984;DHT22;16737;50.932;6.780;2023-03-01T01:35:56;2.60;68.30
9984;DHT22;16737;50.932;6.780;2023-03-01T01:38:24;2.50;68.20
9984;DHT22;16737;50.932;6.780;2023-03-01T01:40:51;2.50;68.30
9984;DHT22;16737;50.932;6.780;2023-03-01T01:43:21;2.50;68.40
9984;DHT22;16737;50.932;6.780;2023-03-01T01:45:49;2.50;68.60
9984;DHT22;16737;50.932;6.780;2023-03-01T01:48:20;2.40;68.40
9984;DHT22;16737;50.932;6.780;2023-03-01T01:50:55;2.40;68.70
9984;DHT22;16737;50.932;6.780;2023-03-01T01:53:25;2.40;68.90
9984;DHT22;16737;50.932;6.780;2023-03-01T01:55:57;2.40;68.50
9984;DHT22;16737;50.932;6.780;2023-03-01T01:58:28;2.40;68.80
9984;DHT22;16737;50.932;6.780;2023-03-01T02:00:56;2.30;68.70
9984;DHT22;16737;50.932;6.780;2023-03-01T02:03:29;2.30;68.70
9984;DHT22;16737;50.932;6.780;2023-03-01T02:06:04;2.30;68.90
9984;DHT22;16737;50.932;6.780;2023-03-01T02:08:36;2.30;68.90
9984;DHT22;16737;50.932;6.780;2023-03-01T02:11:07;2.30;69.00
9984;DHT22;16737;50.932;6.780;2023-03-01T02:13:35;2.30;68.90
9984;DHT22;16737;50.932;6.780;2023-03-01T02:16:04;2.30;68.90
9984;DHT22;16737;50.932;6.780;2023-03-01T02:18:37;2.20;68.90
9984;DHT22;16737;50.932;6.780;2023-03-01T02:21:17;2.20;69.10
9984;DHT22;16737;50.932;6.780;2023-03-01T02:23:56;2.20;69.60
9984;DHT22;16737;50.932;6.780;2023-03-01T02:26:30;2.20;69.00
9984;DHT22;16737;50.932;6.780;2023-03-01T02:29:08;2.20;69.40
9984;DHT22;16737;50.932;6.780;2023-03-01T02:31:35;2.20;69.10
9984;DHT22;16737;50.932;6.780;2023-03-01T02:34:09;2.10;68.90
9984;DHT22;16737;50.932;6.780;2023-03-01T02:36:40;2.10;69.00
9984;DHT22;16737;50.932;6.780;2023-03-01T02:39:15;2.10;69.00
9984;DHT22;16737;50.932;6.780;2023-03-01T02:41:47;2.10;69.30
9984;DHT22;16737;50.932;6.780;2023-03-01T02:44:20;2.10;69.20
9984;DHT22;16737;50.932;6.780;2023-03-01T02:46:50;2.10;69.30
9984;DHT22;16737;50.932;6.780;2023-03-01T02:49:24;2.00;69.20
9984;DHT22;16737;50.932;6.780;2023-03-01T02:52:22;2.00;69.50
9984;DHT22;16737;50.932;6.780;2023-03-01T02:55:00;2.00;70.50
9984;DHT22;16737;50.932;6.780;2023-03-01T02:57:30;2.00;69.40
9984;DHT22;16737;50.932;6.780;2023-03-01T03:00:05;1.90;69.40
9984;DHT22;16737;50.932;6.780;2023-03-01T03:02:34;1.90;69.60
9984;DHT22;16737;50.932;6.780;2023-03-01T03:05:07;1.90;69.40
9984;DHT22;16737;50.932;6.780;2023-03-01T03:07:37;1.90;69.60
9984;DHT22;16737;50.932;6.780;2023-03-01T03:10:08;1.90;69.70
9984;DHT22;16737;50.932;6.780;2023-03-01T03:12:38;1.80;69.70
9984;DHT22;16737;50.932;6.780;2023-03-01T03:15:09;1.80;69.60
9984;DHT22;16737;50.932;6.780;2023-03-01T03:17:38;1.80;69.90
9984;DHT22;16737;50.932;6.780;2023-03-01T03:20:11;1.80;69.70
9984;DHT22;16737;50.932;6.780;2023-03-01T03:22:44;1.80;70.10
9984;DHT22;16737;50.932;6.780;2023-03-01T03:25:12;1.80;69.90
9984;DHT22;16737;50.932;6.780;2023-03-01T03:27:41;1.80;69.70
9984;DHT22;16737;50.932;6.780;2023-03-01T03:30:14;1.80;69.90
9984;DHT22;16737;50.932;6.780;2023-03-01T03:32:45;1.80;70.20
9984;DHT22;16737;50.932;6.780;2023-03-01T03:35:18;1.80;69.90
9984;DHT22;16737;50.932;6.780;2023-03-01T03:37:46;1.80;70.00
9984;DHT22;16737;50.932;6.780;2023-03-01T03:40:30;1.80;70.00
9984;DHT22;16737;50.932;6.780;2023-03-01T03:42:58;1.70;69.90
9984;DHT22;16737;50.932;6.780;2023-03-01T03:45:26;1.70;69.90
9984;DHT22;16737;50.932;6.780;2023-03-01T03:47:53;1.70;70.00
9984;DHT22;16737;50.932;6.780;2023-03-01T03:50:20;1.70;70.00
9984;DHT22;16737;50.932;6.780;2023-03-01T03:52:47;1.70;70.00
9984;DHT22;16737;50.932;6.780;2023-03-01T03:55:14;1.70;70.00
9984;DHT22;16737;50.932;6.780;2023-03-01T03:57:45;1.60;70.00
9984;DHT22;16737;50.932;6.780;2023-03-01T04:00:18;1.70;70.20
9984;DHT22;16737;50.932;6.780;2023-03-01T04:02:50;1.60;70.10
9984;DHT22;16737;50.932;6.780;2023-03-01T04:05:21;1.60;70.20
9984;DHT22;16737;50.932;6.780;2023-03-01T04:07:49;1.60;70.20
9984;DHT22;16737;50.932;6.780;2023-03-01T04:10:26;1.60;70.20
9984;DHT22;16737;50.932;6.780;2023-03-01T04:12:54;1.60;70.20
9984;DHT22;16737;50.932;6.780;2023-03-01T04:15:23;1.60;70.30
9984;DHT22;16737;50.932;6.780;2023-03-01T04:17:53;1.50;70.30
9984;DHT22;16737;50.932;6.780;2023-03-01T04:20:22;1.50;70.50
9984;DHT22;16737;50.932;6.780;2023-03-01T04:22:52;1.50;70.40
9984;DHT22;16737;50.932;6.780;2023-03-01T04:25:24;1.50;70.40
9984;DHT22;16737;50.932;6.780;2023-03-01T04:27:51;1.50;70.40
9984;DHT22;16737;50.932;6.780;2023-03-01T04:30:18;1.50;70.50
9984;DHT22;16737;50.932;6.780;2023-03-01T04:32:45;1.50;70.50
9984;DHT22;16737;50.932;6.780;2023-03-01T04:35:13;1.50;70.60
9984;DHT22;16737;50.932;6.780;2023-03-01T04:37:40;1.50;70.70
9984;DHT22;16737;50.932;6.780;2023-03-01T04:40:08;1.40;70.60
9984;DHT22;16737;50.932;6.780;2023-03-01T04:42:41;1.50;70.80
9984;DHT22;16737;50.932;6.780;2023-03-01T04:45:09;1.50;70.80
9984;DHT22;16737;50.932;6.780;2023-03-01T04:47:39;1.50;70.90
9984;DHT22;16737;50.932;6.780;2023-03-01T04:50:09;1.40;70.90
9984;DHT22;16737;50.932;6.780;2023-03-01T04:52:39;1.50;71.00
9984;DHT22;16737;50.932;6.780;2023-03-01T04:55:06;1.40;70.90
9984;DHT22;16737;50.932;6.780;2023-03-01T04:57:34;1.40;71.60
9984;DHT22;16737;50.932;6.780;2023-03-01T05:00:01;1.40;70.90
9984;DHT22;16737;50.932;6.780;2023-03-01T05:02:45;1.40;70.90
9984;DHT22;16737;50.932;6.780;2023-03-01T05:05:19;1.40;70.90
9984;DHT22;16737;50.932;6.780;2023-03-01T05:07:53;1.40;70.80
9984;DHT22;16737;50.932;6.780;2023-03-01T05:10:20;1.40;71.00
9984;DHT22;16737;50.932;6.780;2023-03-01T05:12:48;1.40;71.00
9984;DHT22;16737;50.932;6.780;2023-03-01T05:15:15;1.40;71.00
9984;DHT22;16737;50.932;6.780;2023-03-01T05:17:42;1.40;71.00
9984;DHT22;16737;50.932;6.780;2023-03-01T05:20:10;1.40;71.10
9984;DHT22;16737;50.932;6.780;2023-03-01T05:22:37;1.40;71.20
9984;DHT22;16737;50.932;6.780;2023-03-01T05:25:06;1.40;71.20
9984;DHT22;16737;50.932;6.780;2023-03-01T05:27:34;1.40;71.40
9984;DHT22;16737;50.932;6.780;2023-03-01T05:30:01;1.40;71.30
9984;DHT22;16737;50.932;6.780;2023-03-01T05:32:40;1.40;71.30
9984;DHT22;16737;50.932;6.780;2023-03-01T05:35:09;1.40;71.30
9984;DHT22;16737;50.932;6.780;2023-03-01T05:37:39;1.40;71.30
9984;DHT22;16737;50.932;6.780;2023-03-01T05:40:13;1.40;71.40
9984;DHT22;16737;50.932;6.780;2023-03-01T05:42:43;1.40;71.70
9984;DHT22;16737;50.932;6.780;2023-03-01T05:45:11;1.40;71.50
9984;DHT22;16737;50.932;6.780;2023-03-01T05:47:39;1.30;71.40
9984;DHT22;16737;50.932;6.780;2023-03-01T05:50:13;1.30;71.40
9984;DHT22;16737;50.932;6.780;2023-03-01T05:52:45;1.30;71.60
9984;DHT22;16737;50.932;6.780;2023-03-01T05:55:16;1.30;71.50
9984;DHT22;16737;50.932;6.780;2023-03-01T05:57:43;1.30;71.70
9984;DHT22;16737;50.932;6.780;2023-03-01T06:00:12;1.30;71.50
9984;DHT22;16737;50.932;6.780;2023-03-01T06:02:40;1.30;71.70
9984;DHT22;16737;50.932;6.780;2023-03-01T06:05:09;1.30;71.70
9984;DHT22;16737;50.932;6.780;2023-03-01T06:07:37;1.30;71.80
9984;DHT22;16737;50.932;6.780;2023-03-01T06:10:06;1.30;71.80
9984;DHT22;16737;50.932;6.780;2023-03-01T06:12:37;1.30;72.00
9984;DHT22;16737;50.932;6.780;2023-03-01T06:15:06;1.30;72.00
9984;DHT22;16737;50.932;6.780;2023-03-01T06:17:37;1.30;72.00
9984;DHT22;16737;50.932;6.780;2023-03-01T06:20:08;1.30;72.00
9984;DHT22;16737;50.932;6.780;2023-03-01T06:22:37;1.30;72.00
9984;DHT22;16737;50.932;6.780;2023-03-01T06:25:05;1.30;72.00
9984;DHT22;16737;50.932;6.780;2023-03-01T06:27:33;1.30;72.10
9984;DHT22;16737;50.932;6.780;2023-03-01T06:30:01;1.30;72.10
9984;DHT22;16737;50.932;6.780;2023-03-01T06:32:29;1.30;72.30
9984;DHT22;16737;50.932;6.780;2023-03-01T06:34:57;1.30;72.30
9984;DHT22;16737;50.932;6.780;2023-03-01T06:37:24;1.30;72.30
9984;DHT22;16737;50.932;6.780;2023-03-01T06:39:52;1.30;72.30
9984;DHT22;16737;50.932;6.780;2023-03-01T06:42:18;1.30;72.40
9984;DHT22;16737;50.932;6.780;2023-03-01T06:44:45;1.30;72.40
9984;DHT22;16737;50.932;6.780;2023-03-01T06:47:14;1.30;72.50
9984;DHT22;16737;50.932;6.780;2023-03-01T06:49:41;1.30;72.80
9984;DHT22;16737;50.932;6.780;2023-03-01T06:52:07;1.30;72.50
9984;DHT22;16737;50.932;6.780;2023-03-01T06:54:34;1.30;72.60
9984;DHT22;16737;50.932;6.780;2023-03-01T06:57:01;1.30;72.70
9984;DHT22;16737;50.932;6.780;2023-03-01T06:59:28;1.30;72.70
9984;DHT22;16737;50.932;6.780;2023-03-01T07:01:56;1.30;72.80
9984;DHT22;16737;50.932;6.780;2023-03-01T07:04:24;1.30;72.90
9984;DHT22;16737;50.932;6.780;2023-03-01T07:06:53;1.30;73.10
9984;DHT22;16737;50.932;6.780;2023-03-01T07:09:21;1.30;73.00
9984;DHT22;16737;50.932;6.780;2023-03-01T07:11:48;1.30;73.10
9984;DHT22;16737;50.932;6.780;2023-03-01T07:14:16;1.40;73.30
9984;DHT22;16737;50.932;6.780;2023-03-01T07:16:43;1.40;73.30
9984;DHT22;16737;50.932;6.780;2023-03-01T07:19:10;1.40;73.50
9984;DHT22;16737;50.932;6.780;2023-03-01T07:21:38;1.50;73.70
9984;DHT22;16737;50.932;6.780;2023-03-01T07:24:06;1.50;73.80
9984;DHT22;16737;50.932;6.780;2023-03-01T07:26:34;1.50;73.80
9984;DHT22;16737;50.932;6.780;2023-03-01T07:29:03;1.60;73.90
9984;DHT22;16737;50.932;6.780;2023-03-01T07:31:32;1.60;74.00
9984;DHT22;16737;50.932;6.780;2023-03-01T07:33:59;1.60;74.00
9984;DHT22;16737;50.932;6.780;2023-03-01T07:36:26;1.70;74.10
9984;DHT22;16737;50.932;6.780;2023-03-01T07:38:54;1.70;74.10
9984;DHT22;16737;50.932;6.780;2023-03-01T07:41:21;1.80;74.30
9984;DHT22;16737;50.932;6.780;2023-03-01T07:43:48;1.90;74.30
9984;DHT22;16737;50.932;6.780;2023-03-01T07:46:15;1.90;74.30
9984;DHT22;16737;50.932;6.780;2023-03-01T07:48:43;2.00;74.50
9984;DHT22;16737;50.932;6.780;2023-03-01T07:51:10;2.00;74.50
9984;DHT22;16737;50.932;6.780;2023-03-01T07:53:37;2.10;74.50
9984;DHT22;16737;50.932;6.780;2023-03-01T07:56:08;2.10;74.50
9984;DHT22;16737;50.932;6.780;2023-03-01T07:58:37;2.20;74.70
9984;DHT22;16737;50.932;6.780;2023-03-01T08:01:10;2.20;74.60
9984;DHT22;16737;50.932;6.780;2023-03-01T08:03:39;2.30;74.80
9984;DHT22;16737;50.932;6.780;2023-03-01T08:06:08;2.40;74.60
9984;DHT22;16737;50.932;6.780;2023-03-01T08:08:36;2.40;74.70
9984;DHT22;16737;50.932;6.780;2023-03-01T08:11:06;2.50;74.70
9984;DHT22;16737;50.932;6.780;2023-03-01T08:13:34;2.50;74.80
9984;DHT22;16737;50.932;6.780;2023-03-01T08:16:01;2.60;74.90
9984;DHT22;16737;50.932;6.780;2023-03-01T08:18:29;2.60;74.70
9984;DHT22;16737;50.932;6.780;2023-03-01T08:21:00;2.70;74.60
9984;DHT22;16737;50.932;6.780;2023-03-01T08:23:28;2.80;74.70
9984;DHT22;16737;50.932;6.780;2023-03-01T08:25:59;2.80;74.70
9984;DHT22;16737;50.932;6.780;2023-03-01T08:28:31;2.90;74.80
9984;DHT22;16737;50.932;6.780;2023-03-01T08:30:58;2.90;74.80
9984;DHT22;16737;50.932;6.780;2023-03-01T08:33:25;3.00;75.30
9984;DHT22;16737;50.932;6.780;2023-03-01T08:35:52;3.10;74.80
9984;DHT22;16737;50.932;6.780;2023-03-01T08:38:19;3.10;74.80
9984;DHT22;16737;50.932;6.780;2023-03-01T08:40:46;3.20;74.80
9984;DHT22;16737;50.932;6.780;2023-03-01T08:43:12;3.20;74.80
9984;DHT22;16737;50.932;6.780;2023-03-01T08:45:41;3.30;74.80
9984;DHT22;16737;50.932;6.780;2023-03-01T08:48:08;3.40;75.20
9984;DHT22;16737;50.932;6.780;2023-03-01T08:50:35;3.40;75.00
9984;DHT22;16737;50.932;6.780;2023-03-01T08:53:02;3.50;75.00
9984;DHT22;16737;50.932;6.780;2023-03-01T08:55:29;3.60;75.30
9984;DHT22;16737;50.932;6.780;2023-03-01T08:57:55;3.70;75.30
9984;DHT22;16737;50.932;6.780;2023-03-01T09:00:24;3.70;75.30
9984;DHT22;16737;50.932;6.780;2023-03-01T09:02:52;3.80;75.30
9984;DHT22;16737;50.932;6.780;2023-03-01T09:05:19;3.90;75.50
9984;DHT22;16737;50.932;6.780;2023-03-01T09:07:46;3.90;75.30
9984;DHT22;16737;50.932;6.780;2023-03-01T09:10:13;4.00;75.40
9984;DHT22;16737;50.932;6.780;2023-03-01T09:12:40;4.10;75.50
9984;DHT22;16737;50.932;6.780;2023-03-01T09:15:08;4.20;75.60
9984;DHT22;16737;50.932;6.780;2023-03-01T09:17:36;4.30;75.40
9984;DHT22;16737;50.932;6.780;2023-03-01T09:20:05;4.40;75.30
9984;DHT22;16737;50.932;6.780;2023-03-01T09:22:33;4.50;75.30
9984;DHT22;16737;50.932;6.780;2023-03-01T09:25:00;4.60;75.60
9984;DHT22;16737;50.932;6.780;2023-03-01T09:27:27;4.70;76.30
9984;DHT22;16737;50.932;6.780;2023-03-01T09:29:54;4.80;76.20
9984;DHT22;16737;50.932;6.780;2023-03-01T09:32:21;5.00;76.20
9984;DHT22;16737;50.932;6.780;2023-03-01T09:34:48;5.10;75.90
9984;DHT22;16737;50.932;6.780;2023-03-01T09:37:31;5.30;75.70
9984;DHT22;16737;50.932;6.780;2023-03-01T09:39:59;5.40;75.30
9984;DHT22;16737;50.932;6.780;2023-03-01T09:42:27;5.50;75.30
9984;DHT22;16737;50.932;6.780;2023-03-01T09:45:00;5.60;75.20
9984;DHT22;16737;50.932;6.780;2023-03-01T09:47:31;5.80;75.00
9984;DHT22;16737;50.932;6.780;2023-03-01T09:50:04;5.90;75.30
9984;DHT22;16737;50.932;6.780;2023-03-01T09:52:41;6.00;75.10
9984;DHT22;16737;50.932;6.780;2023-03-01T09:55:12;6.10;74.80
9984;DHT22;16737;50.932;6.780;2023-03-01T09:57:46;6.30;74.70
9984;DHT22;16737;50.932;6.780;2023-03-01T10:00:24;6.40;74.90
9984;DHT22;16737;50.932;6.780;2023-03-01T10:03:06;6.50;75.50
9984;DHT22;16737;50.932;6.780;2023-03-01T10:05:47;6.70;75.50
9984;DHT22;16737;50.932;6.780;2023-03-01T10:08:29;6.80;75.60
9984;DHT22;16737;50.932;6.780;2023-03-01T10:11:02;7.00;75.40
9984;DHT22;16737;50.932;6.780;2023-03-01T10:13:37;7.20;75.60
9984;DHT22;16737;50.932;6.780;2023-03-01T10:16:17;7.30;75.60
9984;DHT22;16737;50.932;6.780;2023-03-01T10:18:53;7.50;75.40
9984;DHT22;16737;50.932;6.780;2023-03-01T10:21:27;7.70;75.10
9984;DHT22;16737;50.932;6.780;2023-03-01T10:24:07;7.90;74.50
9984;DHT22;16737;50.932;6.780;2023-03-01T10:26:43;8.00;73.30
9984;DHT22;16737;50.932;6.780;2023-03-01T10:29:15;8.10;73.10
9984;DHT22;16737;50.932;6.780;2023-03-01T10:31:44;8.20;73.10
9984;DHT22;16737;50.932;6.780;2023-03-01T10:34:15;8.30;73.90
9984;DHT22;16737;50.932;6.780;2023-03-01T10:36:48;8.40;72.90
9984;DHT22;16737;50.932;6.780;2023-03-01T10:39:19;8.60;72.80
9984;DHT22;16737;50.932;6.780;2023-03-01T10:41:57;8.70;72.50
9984;DHT22;16737;50.932;6.780;2023-03-01T10:44:38;8.80;71.90
9984;DHT22;16737;50.932;6.780;2023-03-01T10:47:18;8.90;70.70
9984;DHT22;16737;50.932;6.780;2023-03-01T10:50:02;9.00;70.90
9984;DHT22;16737;50.932;6.780;2023-03-01T10:52:33;9.00;69.50
9984;DHT22;16737;50.932;6.780;2023-03-01T10:55:23;9.10;70.80
9984;DHT22;16737;50.932;6.780;2023-03-01T10:58:07;9.20;70.50
9984;DHT22;16737;50.932;6.780;2023-03-01T11:00:48;9.30;69.60
9984;DHT22;16737;50.932;6.780;2023-03-01T11:03:19;9.30;69.70
9984;DHT22;16737;50.932;6.780;2023-03-01T11:05:55;9.40;69.70
9984;DHT22;16737;50.932;6.780;2023-03-01T11:08:36;9.50;70.20
9984;DHT22;16737;50.932;6.780;2023-03-01T11:11:18;9.50;69.10
9984;DHT22;16737;50.932;6.780;2023-03-01T11:13:57;9.60;68.30
9984;DHT22;16737;50.932;6.780;2023-03-01T11:16:32;9.70;69.30
9984;DHT22;16737;50.932;6.780;2023-03-01T11:19:18;9.80;68.80
9984;DHT22;16737;50.932;6.780;2023-03-01T11:21:59;9.80;67.60
9984;DHT22;16737;50.932;6.780;2023-03-01T11:24:39;9.90;67.80
9984;DHT22;16737;50.932;6.780;2023-03-01T11:27:16;10.00;66.20
9984;DHT22;16737;50.932;6.780;2023-03-01T11:29:48;10.00;65.70
9984;DHT22;16737;50.932;6.780;2023-03-01T11:32:21;10.00;66.30
9984;DHT22;16737;50.932;6.780;2023-03-01T11:34:54;10.10;66.60
9984;DHT22;16737;50.932;6.780;2023-03-01T11:37:32;10.20;66.40
9984;DHT22;16737;50.932;6.780;2023-03-01T11:40:13;10.20;66.20
9984;DHT22;16737;50.932;6.780;2023-03-01T11:42:53;10.20;66.10
9984;DHT22;16737;50.932;6.780;2023-03-01T11:45:39;10.30;65.60
9984;DHT22;16737;50.932;6.780;2023-03-01T11:48:29;10.40;66.00
9984;DHT22;16737;50.932;6.780;2023-03-01T11:51:09;10.50;65.70
9984;DHT22;16737;50.932;6.780;2023-03-01T11:53:54;10.50;65.10
9984;DHT22;16737;50.932;6.780;2023-03-01T11:56:34;10.60;64.30
9984;DHT22;16737;50.932;6.780;2023-03-01T11:59:43;10.70;65.10
9984;DHT22;16737;50.932;6.780;2023-03-01T12:02:40;10.70;63.20
9984;DHT22;16737;50.932;6.780;2023-03-01T12:05:45;10.70;63.20
9984;DHT22;16737;50.932;6.780;2023-03-01T12:08:33;10.80;62.40
9984;DHT22;16737;50.932;6.780;2023-03-01T12:11:15;10.70;63.50
9984;DHT22;16737;50.932;6.780;2023-03-01T12:17:25;10.80;62.30
9984;DHT22;16737;50.932;6.780;2023-03-01T12:20:20;10.80;63.40
9984;DHT22;16737;50.932;6.780;2023-03-01T12:23:13;10.90;62.60
9984;DHT22;16737;50.932;6.780;2023-03-01T12:26:08;10.90;61.40
9984;DHT22;16737;50.932;6.780;2023-03-01T12:28:49;11.00;62.60
9984;DHT22;16737;50.932;6.780;2023-03-01T12:35:19;11.00;61.20
9984;DHT22;16737;50.932;6.780;2023-03-01T12:38:07;11.10;61.00
9984;DHT22;16737;50.932;6.780;2023-03-01T12:44:12;11.10;59.80
9984;DHT22;16737;50.932;6.780;2023-03-01T12:47:07;11.20;60.80
9984;DHT22;16737;50.932;6.780;2023-03-01T12:49:46;11.10;59.80
9984;DHT22;16737;50.932;6.780;2023-03-01T12:52:20;11.10;60.80
9984;DHT22;16737;50.932;6.780;2023-03-01T12:54:51;11.20;59.90
9984;DHT22;16737;50.932;6.780;2023-03-01T12:57:27;11.20;60.80
9984;DHT22;16737;50.932;6.780;2023-03-01T13:00:11;11.20;60.00
9984;DHT22;16737;50.932;6.780;2023-03-01T13:02:57;11.20;59.90
9984;DHT22;16737;50.932;6.780;2023-03-01T13:05:39;11.30;58.90
9984;DHT22;16737;50.932;6.780;2023-03-01T13:08:19;11.30;58.60
9984;DHT22;16737;50.932;6.780;2023-03-01T13:10:53;11.30;59.00
9984;DHT22;16737;50.932;6.780;2023-03-01T13:13:24;11.30;58.30
9984;DHT22;16737;50.932;6.780;2023-03-01T13:15:53;11.30;58.50
9984;DHT22;16737;50.932;6.780;2023-03-01T13:18:30;11.30;58.50
9984;DHT22;16737;50.932;6.780;2023-03-01T13:21:00;11.30;58.80
9984;DHT22;16737;50.932;6.780;2023-03-01T13:23:33;11.30;60.00
9984;DHT22;16737;50.932;6.780;2023-03-01T13:26:08;11.40;59.60
9984;DHT22;16737;50.932;6.780;2023-03-01T13:29:01;11.40;59.20
9984;DHT22;16737;50.932;6.780;2023-03-01T13:31:58;11.50;58.10
9984;DHT22;16737;50.932;6.780;2023-03-01T13:34:51;11.50;57.00
9984;DHT22;16737;50.932;6.780;2023-03-01T13:37:34;11.50;57.60
9984;DHT22;16737;50.932;6.780;2023-03-01T13:43:29;11.50;57.60
9984;DHT22;16737;50.932;6.780;2023-03-01T13:45:58;11.60;58.80
9984;DHT22;16737;50.932;6.780;2023-03-01T13:48:28;11.60;59.30
9984;DHT22;16737;50.932;6.780;2023-03-01T13:50:59;11.60;59.40
9984;DHT22;16737;50.932;6.780;2023-03-01T13:53:33;11.60;58.60
9984;DHT22;16737;50.932;6.780;2023-03-01T13:56:07;11.70;59.10
9984;DHT22;16737;50.932;6.780;2023-03-01T13:58:49;11.70;58.50
9984;DHT22;16737;50.932;6.780;2023-03-01T14:01:25;11.70;57.80
9984;DHT22;16737;50.932;6.780;2023-03-01T14:03:54;11.80;59.10
9984;DHT22;16737;50.932;6.780;2023-03-01T14:06:27;11.70;59.10
9984;DHT22;16737;50.932;6.780;2023-03-01T14:09:03;11.80;58.50
9984;DHT22;16737;50.932;6.780;2023-03-01T14:12:11;11.80;58.40
9984;DHT22;16737;50.932;6.780;2023-03-01T14:14:52;11.80;57.90
9984;DHT22;16737;50.932;6.780;2023-03-01T14:17:43;11.80;58.20
9984;DHT22;16737;50.932;6.780;2023-03-01T14:20:19;11.80;58.00
9984;DHT22;16737;50.932;6.780;2023-03-01T14:22:50;11.80;58.40
9984;DHT22;16737;50.932;6.780;2023-03-01T14:25:25;11.80;58.10
9984;DHT22;16737;50.932;6.780;2023-03-01T14:27:58;11.70;58.20
9984;DHT22;16737;50.932;6.780;2023-03-01T14:30:33;11.70;58.00
9984;DHT22;16737;50.932;6.780;2023-03-01T14:33:05;11.80;57.90
9984;DHT22;16737;50.932;6.780;2023-03-01T14:35:34;11.80;58.00
9984;DHT22;16737;50.932;6.780;2023-03-01T14:38:04;11.80;58.20
9984;DHT22;16737;50.932;6.780;2023-03-01T14:40:33;11.80;56.70
9984;DHT22;16737;50.932;6.780;2023-03-01T14:43:09;11.80;57.50
9984;DHT22;16737;50.932;6.780;2023-03-01T14:45:38;11.70;57.60
9984;DHT22;16737;50.932;6.780;2023-03-01T14:48:07;11.80;57.80
9984;DHT22;16737;50.932;6.780;2023-03-01T14:50:35;11.70;58.10
9984;DHT22;16737;50.932;6.780;2023-03-01T14:53:17;11.70;57.70
9984;DHT22;16737;50.932;6.780;2023-03-01T14:55:47;11.70;57.00
9984;DHT22;16737;50.932;6.780;2023-03-01T14:58:20;11.70;57.30
9984;DHT22;16737;50.932;6.780;2023-03-01T15:00:52;11.80;57.40
9984;DHT22;16737;50.932;6.780;2023-03-01T15:03:27;11.70;57.10
9984;DHT22;16737;50.932;6.780;2023-03-01T15:06:01;11.70;56.70
9984;DHT22;16737;50.932;6.780;2023-03-01T15:08:31;11.60;56.70
9984;DHT22;16737;50.932;6.780;2023-03-01T15:11:02;11.60;56.60
9984;DHT22;16737;50.932;6.780;2023-03-01T15:13:32;11.60;57.10
9984;DHT22;16737;50.932;6.780;2023-03-01T15:16:04;11.50;57.00
9984;DHT22;16737;50.932;6.780;2023-03-01T15:18:33;11.50;57.40
9984;DHT22;16737;50.932;6.780;2023-03-01T15:21:10;11.50;57.10
9984;DHT22;16737;50.932;6.780;2023-03-01T15:23:48;11.40;56.90
9984;DHT22;16737;50.932;6.780;2023-03-01T15:26:26;11.30;57.20
9984;DHT22;16737;50.932;6.780;2023-03-01T15:28:57;11.30;57.50
9984;DHT22;16737;50.932;6.780;2023-03-01T15:31:27;11.30;57.40
9984;DHT22;16737;50.932;6.780;2023-03-01T15:34:08;11.20;57.30
9984;DHT22;16737;50.932;6.780;2023-03-01T15:36:41;11.20;57.20
9984;DHT22;16737;50.932;6.780;2023-03-01T15:39:34;11.10;57.50
9984;DHT22;16737;50.932;6.780;2023-03-01T15:42:05;11.10;57.20
9984;DHT22;16737;50.932;6.780;2023-03-01T15:44:38;11.00;57.00
9984;DHT22;16737;50.932;6.780;2023-03-01T15:47:26;11.00;57.40
9984;DHT22;16737;50.932;6.780;2023-03-01T15:49:57;10.90;56.80
9984;DHT22;16737;50.932;6.780;2023-03-01T15:52:28;10.90;57.50
9984;DHT22;16737;50.932;6.780;2023-03-01T15:55:03;10.90;57.10
9984;DHT22;16737;50.932;6.780;2023-03-01T15:57:32;10.80;57.30
9984;DHT22;16737;50.932;6.780;2023-03-01T15:59:59;10.80;57.40
9984;DHT22;16737;50.932;6.780;2023-03-01T16:02:26;10.70;57.30
9984;DHT22;16737;50.932;6.780;2023-03-01T16:04:54;10.70;57.30
9984;DHT22;16737;50.932;6.780;2023-03-01T16:07:21;10.60;57.20
9984;DHT22;16737;50.932;6.780;2023-03-01T16:09:48;10.60;57.40
9984;DHT22;16737;50.932;6.780;2023-03-01T16:12:16;10.60;57.40
9984;DHT22;16737;50.932;6.780;2023-03-01T16:14:45;10.60;57.20
9984;DHT22;16737;50.932;6.780;2023-03-01T16:17:13;10.50;57.30
9984;DHT22;16737;50.932;6.780;2023-03-01T16:19:41;10.50;57.40
9984;DHT22;16737;50.932;6.780;2023-03-01T16:22:09;10.40;57.40
9984;DHT22;16737;50.932;6.780;2023-03-01T16:24:36;10.40;58.10
9984;DHT22;16737;50.932;6.780;2023-03-01T16:27:03;10.40;57.40
9984;DHT22;16737;50.932;6.780;2023-03-01T16:29:32;10.30;57.50
9984;DHT22;16737;50.932;6.780;2023-03-01T16:32:00;10.30;57.30
9984;DHT22;16737;50.932;6.780;2023-03-01T16:34:27;10.20;57.20
9984;DHT22;16737;50.932;6.780;2023-03-01T16:36:54;10.20;57.40
9984;DHT22;16737;50.932;6.780;2023-03-01T16:39:21;10.20;57.60
9984;DHT22;16737;50.932;6.780;2023-03-01T16:41:48;10.20;57.40
9984;DHT22;16737;50.932;6.780;2023-03-01T16:44:15;10.10;57.30